createdAt,value
2018-05-05T00:00:59.543Z,82.50
2018-05-05T00:03:27.746Z,81.80
2018-05-05T00:05:56.219Z,82.20
2018-05-05T00:08:24.967Z,82.10
2018-05-05T00:10:52.573Z,81.90
2018-05-05T00:13:20.529Z,81.90
2018-05-05T00:15:48.416Z,82.40
2018-05-05T00:18:17.845Z,82.20
2018-05-05T00:20:47.013Z,82.30
2018-05-05T00:23:15.377Z,82.50
2018-05-05T00:25:42.858Z,82.50
2018-05-05T00:28:10.324Z,83.10
2018-05-05T00:30:38.572Z,83.60
2018-05-05T00:33:06.048Z,83.50
2018-05-05T00:35:33.536Z,84.20
2018-05-05T00:38:01.020Z,85.00
2018-05-05T00:40:28.516Z,85.30
2018-05-05T00:42:55.982Z,85.50
2018-05-05T00:45:23.456Z,86.00
2018-05-05T00:47:51.684Z,86.10
2018-05-05T00:50:19.163Z,86.80
2018-05-05T00:52:46.639Z,86.60
2018-05-05T00:55:14.108Z,87.50
2018-05-05T00:57:42.347Z,87.50
2018-05-05T01:00:09.803Z,87.40
2018-05-05T01:02:37.283Z,88.10
2018-05-05T01:05:04.767Z,88.20
2018-05-05T01:07:33.017Z,88.80
2018-05-05T01:10:00.475Z,88.80
2018-05-05T01:12:27.959Z,89.50
2018-05-05T01:14:55.440Z,90.10
2018-05-05T01:17:22.923Z,90.20
2018-05-05T01:19:50.389Z,90.60
2018-05-05T01:22:17.864Z,90.70
2018-05-05T01:24:45.332Z,90.90
2018-05-05T01:27:13.586Z,91.20
2018-05-05T01:29:41.043Z,91.10
2018-05-05T01:32:08.509Z,91.50
2018-05-05T01:34:35.983Z,91.50
2018-05-05T01:37:04.224Z,91.90
2018-05-05T01:39:31.700Z,91.90
2018-05-05T01:41:59.164Z,91.90
2018-05-05T01:44:26.637Z,92.10
2018-05-05T01:46:54.868Z,92.50
2018-05-05T01:49:22.337Z,92.50
2018-05-05T01:51:49.808Z,92.40
2018-05-05T01:54:17.292Z,92.20
2018-05-05T01:56:45.532Z,92.30
2018-05-05T01:59:13.016Z,92.50
2018-05-05T02:01:41.248Z,92.90
2018-05-05T02:04:08.725Z,92.80
2018-05-05T02:06:36.192Z,93.00
2018-05-05T02:09:03.664Z,93.00
2018-05-05T02:11:31.904Z,93.70
2018-05-05T02:13:59.394Z,93.70
2018-05-05T02:16:26.859Z,93.80
2018-05-05T02:18:55.087Z,94.00
2018-05-05T02:21:22.555Z,94.00
2018-05-05T02:23:50.033Z,94.10
2018-05-05T02:26:17.511Z,94.20
2018-05-05T02:28:45.734Z,94.40
2018-05-05T02:31:13.208Z,94.40
2018-05-05T02:33:40.672Z,94.50
2018-05-05T02:36:08.164Z,94.50
2018-05-05T02:38:36.399Z,94.70
2018-05-05T02:41:03.905Z,94.90
2018-05-05T02:43:32.129Z,95.00
2018-05-05T02:45:59.616Z,95.00
2018-05-05T02:48:27.080Z,94.90
2018-05-05T02:50:56.343Z,95.30
2018-05-05T02:53:23.806Z,95.30
2018-05-05T02:55:51.267Z,95.20
2018-05-05T02:58:18.752Z,95.30
2018-05-05T03:00:46.212Z,95.50
2018-05-05T03:03:13.736Z,95.70
2018-05-05T03:05:41.177Z,95.80
2018-05-05T03:08:08.660Z,95.80
2018-05-05T03:10:36.121Z,96.20
2018-05-05T03:13:03.603Z,96.30
2018-05-05T03:15:31.064Z,96.20
2018-05-05T03:17:59.378Z,96.50
2018-05-05T03:20:26.857Z,96.50
2018-05-05T03:22:54.334Z,96.50
2018-05-05T03:25:21.808Z,96.70
2018-05-05T03:27:49.287Z,96.60
2018-05-05T03:30:17.520Z,96.80
2018-05-05T03:32:45.003Z,96.80
2018-05-05T03:35:13.241Z,96.80
2018-05-05T03:37:40.700Z,96.70
2018-05-05T03:40:08.179Z,96.80
2018-05-05T03:42:35.640Z,97.00
2018-05-05T03:45:03.123Z,97.10
2018-05-05T03:47:31.362Z,97.20
2018-05-05T03:49:58.840Z,97.10
2018-05-05T03:52:26.301Z,97.50
2018-05-05T03:54:53.780Z,97.60
2018-05-05T03:57:22.024Z,97.60
2018-05-05T04:00:01.355Z,97.60
2018-05-05T04:02:40.865Z,97.70
2018-05-05T04:08:15.843Z,97.90
2018-05-05T04:10:43.320Z,98.00
2018-05-05T04:13:10.785Z,98.30
2018-05-05T04:15:38.265Z,98.50
2018-05-05T04:18:05.748Z,98.60
2018-05-05T04:20:33.240Z,98.50
2018-05-05T04:23:00.714Z,98.60
2018-05-05T04:25:28.187Z,98.50
2018-05-05T04:27:56.423Z,98.70
2018-05-05T04:30:23.904Z,98.60
2018-05-05T04:32:51.368Z,98.80
2018-05-05T04:35:18.835Z,98.80
2018-05-05T04:37:47.078Z,98.80
2018-05-05T04:40:14.541Z,98.70
2018-05-05T04:42:42.016Z,98.70
2018-05-05T04:45:09.484Z,98.60
2018-05-05T04:47:37.724Z,98.60
2018-05-05T04:50:05.187Z,98.60
2018-05-05T04:52:32.684Z,98.60
2018-05-05T04:55:00.934Z,98.60
2018-05-05T04:57:28.424Z,98.60
2018-05-05T04:59:56.646Z,98.40
2018-05-05T05:02:24.127Z,98.40
2018-05-05T05:04:51.589Z,98.40
2018-05-05T05:07:19.080Z,98.20
2018-05-05T05:09:46.555Z,98.30
2018-05-05T05:12:14.812Z,98.00
2018-05-05T05:14:42.288Z,98.00
2018-05-05T05:17:09.760Z,98.10
2018-05-05T05:19:37.235Z,97.60
2018-05-05T05:22:04.706Z,97.80
2018-05-05T05:24:32.184Z,97.30
2018-05-05T05:27:00.445Z,97.30
2018-05-05T05:29:27.925Z,97.20
2018-05-05T05:31:56.150Z,97.10
2018-05-05T05:34:23.633Z,97.00
2018-05-05T05:36:51.096Z,96.80
2018-05-05T05:39:18.652Z,96.80
2018-05-05T05:41:46.149Z,96.60
2018-05-05T05:44:13.559Z,96.50
2018-05-05T05:46:41.091Z,96.20
2018-05-05T05:49:09.297Z,95.70
2018-05-05T05:51:36.763Z,95.70
2018-05-05T05:54:04.243Z,95.70
2018-05-05T05:56:32.477Z,95.20
2018-05-05T05:58:59.949Z,95.10
2018-05-05T06:01:27.439Z,95.00
2018-05-05T06:03:55.679Z,94.60
2018-05-05T06:06:23.153Z,94.60
2018-05-05T06:08:50.611Z,94.50
2018-05-05T06:11:18.871Z,93.80
2018-05-05T06:13:46.336Z,93.80
2018-05-05T06:16:13.823Z,93.70
2018-05-05T06:18:42.047Z,93.50
2018-05-05T06:21:09.528Z,93.40
2018-05-05T06:23:36.989Z,93.50
2018-05-05T06:26:04.463Z,93.40
2018-05-05T06:28:32.696Z,92.90
2018-05-05T06:31:00.203Z,92.90
2018-05-05T06:33:28.433Z,93.30
2018-05-05T06:35:55.936Z,93.30
2018-05-05T06:38:24.171Z,93.30
2018-05-05T06:40:51.654Z,93.30
2018-05-05T06:43:19.928Z,92.90
2018-05-05T06:45:47.392Z,92.90
2018-05-05T06:48:16.664Z,92.90
2018-05-05T06:50:44.152Z,92.60
2018-05-05T06:53:12.439Z,92.50
2018-05-05T06:55:40.668Z,92.60
2018-05-05T06:58:08.156Z,92.60
2018-05-05T07:00:35.616Z,92.00
2018-05-05T07:03:03.214Z,91.60
2018-05-05T07:05:30.618Z,91.40
2018-05-05T07:07:58.096Z,90.90
2018-05-05T07:10:25.604Z,90.70
2018-05-05T07:12:53.083Z,90.70
2018-05-05T07:15:20.566Z,89.80
2018-05-05T07:17:48.040Z,89.60
2018-05-05T07:20:16.282Z,88.30
2018-05-05T07:22:43.744Z,88.10
2018-05-05T07:25:11.219Z,87.30
2018-05-05T07:27:39.447Z,85.40
2018-05-05T07:30:06.934Z,85.30
2018-05-05T07:32:34.395Z,85.00
2018-05-05T07:35:01.880Z,84.60
2018-05-05T07:37:30.118Z,83.10
2018-05-05T07:39:57.602Z,83.00
2018-05-05T07:42:25.835Z,81.40
2018-05-05T07:44:53.318Z,81.40
2018-05-05T07:47:20.815Z,80.80
2018-05-05T07:49:48.315Z,80.60
2018-05-05T07:52:15.776Z,79.80
2018-05-05T07:54:43.283Z,80.00
2018-05-05T07:57:11.510Z,79.90
2018-05-05T07:59:39.003Z,79.80
2018-05-05T08:02:06.472Z,78.60
2018-05-05T08:04:33.985Z,78.70
2018-05-05T08:07:01.461Z,77.90
2018-05-05T08:09:29.012Z,77.40
2018-05-05T08:11:56.517Z,75.20
2018-05-05T08:14:24.768Z,74.80
2018-05-05T08:16:53.085Z,74.00
2018-05-05T08:19:20.504Z,73.80
2018-05-05T08:21:47.983Z,74.40
2018-05-05T08:24:16.219Z,71.60
2018-05-05T08:26:43.798Z,71.60
2018-05-05T08:29:12.115Z,70.00
2018-05-05T08:31:39.559Z,69.80
2018-05-05T08:34:07.207Z,69.40
2018-05-05T08:36:35.459Z,69.70
2018-05-05T08:39:02.931Z,69.60
2018-05-05T08:41:30.599Z,68.60
2018-05-05T08:43:58.952Z,66.70
2018-05-05T08:46:26.420Z,66.50
2018-05-05T08:48:54.725Z,65.60
2018-05-05T08:51:23.032Z,65.40
2018-05-05T08:53:50.594Z,65.30
2018-05-05T08:56:18.067Z,65.00
2018-05-05T08:58:45.597Z,64.50
2018-05-05T09:01:13.068Z,64.30
2018-05-05T09:03:40.539Z,64.00
2018-05-05T09:06:08.014Z,63.70
2018-05-05T09:08:35.492Z,63.10
2018-05-05T09:11:03.733Z,62.60
2018-05-05T09:13:31.216Z,62.60
2018-05-05T09:16:00.191Z,60.90
2018-05-05T09:18:27.696Z,60.80
2018-05-05T09:20:55.986Z,61.50
2018-05-05T09:23:23.457Z,61.40
2018-05-05T09:25:50.930Z,61.60
2018-05-05T09:28:18.390Z,62.50
2018-05-05T09:30:46.957Z,61.00
2018-05-05T09:33:14.452Z,60.10
2018-05-05T09:35:41.936Z,60.00
2018-05-05T09:38:10.186Z,59.50
2018-05-05T09:40:37.680Z,58.80
2018-05-05T09:43:05.911Z,58.40
2018-05-05T09:45:33.444Z,58.40
2018-05-05T09:48:00.924Z,58.10
2018-05-05T09:50:28.419Z,58.20
2018-05-05T09:52:55.897Z,57.50
2018-05-05T09:55:24.224Z,57.90
2018-05-05T09:57:51.697Z,57.90
2018-05-05T10:00:19.192Z,57.20
2018-05-05T10:02:47.439Z,57.00
2018-05-05T10:05:14.945Z,57.10
2018-05-05T10:07:42.445Z,56.80
2018-05-05T10:10:09.919Z,56.70
2018-05-05T10:12:37.489Z,55.90
2018-05-05T10:15:05.764Z,55.80
2018-05-05T10:17:34.092Z,55.70
2018-05-05T10:20:01.561Z,55.70
2018-05-05T10:22:29.044Z,56.00
2018-05-05T10:24:56.583Z,55.70
2018-05-05T10:27:24.073Z,55.40
2018-05-05T10:29:52.304Z,55.10
2018-05-05T10:32:19.808Z,55.00
2018-05-05T10:34:47.293Z,54.30
2018-05-05T10:37:14.796Z,54.80
2018-05-05T10:39:42.256Z,55.10
2018-05-05T10:42:09.795Z,54.80
2018-05-05T10:44:38.298Z,54.10
2018-05-05T10:47:05.788Z,52.60
2018-05-05T10:49:34.021Z,52.50
2018-05-05T10:52:01.498Z,53.00
2018-05-05T10:54:28.964Z,53.00
2018-05-05T10:56:56.449Z,53.10
2018-05-05T10:59:24.688Z,51.80
2018-05-05T11:01:52.168Z,51.70
2018-05-05T11:04:20.499Z,50.90
2018-05-05T11:06:47.980Z,50.80
2018-05-05T11:09:15.459Z,51.70
2018-05-05T11:11:42.930Z,51.50
2018-05-05T11:14:11.184Z,52.10
2018-05-05T11:16:38.652Z,52.10
2018-05-05T11:19:06.133Z,51.40
2018-05-05T11:21:34.359Z,50.40
2018-05-05T11:24:01.860Z,50.60
2018-05-05T11:26:30.114Z,50.00
2018-05-05T11:28:57.612Z,49.90
2018-05-05T11:31:25.102Z,50.00
2018-05-05T11:33:52.564Z,49.10
2018-05-05T11:36:20.056Z,49.30
2018-05-05T11:38:47.531Z,49.30
2018-05-05T11:41:15.797Z,48.00
2018-05-05T11:43:44.043Z,48.50
2018-05-05T11:46:11.540Z,48.50
2018-05-05T11:48:39.775Z,47.10
2018-05-05T11:51:07.371Z,47.10
2018-05-05T11:53:35.614Z,46.50
2018-05-05T11:56:03.123Z,46.50
2018-05-05T11:58:31.364Z,47.50
2018-05-05T12:00:59.628Z,48.10
2018-05-05T12:03:27.124Z,47.90
2018-05-05T12:05:54.648Z,48.30
2018-05-05T12:08:52.391Z,48.70
2018-05-05T12:11:19.875Z,46.30
2018-05-05T12:13:47.356Z,44.50
2018-05-05T12:16:15.670Z,44.40
2018-05-05T12:18:43.152Z,44.40
2018-05-05T12:21:10.620Z,45.00
2018-05-05T12:23:38.108Z,43.20
2018-05-05T12:26:06.394Z,42.80
2018-05-05T12:28:34.643Z,45.60
2018-05-05T12:31:02.156Z,45.60
2018-05-05T12:33:29.641Z,44.80
2018-05-05T12:35:57.129Z,41.80
2018-05-05T12:38:24.621Z,39.10
2018-05-05T12:40:52.107Z,39.90
2018-05-05T12:43:19.644Z,39.20
2018-05-05T12:45:47.147Z,38.80
2018-05-05T12:48:14.629Z,38.20
2018-05-05T12:50:42.102Z,37.50
2018-05-05T12:53:09.637Z,36.60
2018-05-05T12:55:37.125Z,36.90
2018-05-05T12:58:05.395Z,35.10
2018-05-05T13:00:33.701Z,35.30
2018-05-05T13:03:01.228Z,35.30
2018-05-05T13:05:29.472Z,33.50
2018-05-05T13:07:56.948Z,33.40
2018-05-05T13:10:24.424Z,32.80
2018-05-05T13:12:52.660Z,31.70
2018-05-05T13:15:20.160Z,31.60
2018-05-05T13:17:48.397Z,31.20
2018-05-05T13:20:15.880Z,31.10
2018-05-05T13:22:44.154Z,31.90
2018-05-05T13:25:12.403Z,31.30
2018-05-05T13:27:39.905Z,31.20
2018-05-05T13:30:07.424Z,30.90
2018-05-05T13:32:34.911Z,29.70
2018-05-05T13:35:03.166Z,28.40
2018-05-05T13:37:30.639Z,28.30
2018-05-05T19:28:15.743Z,46.40
2018-05-05T19:30:44.024Z,47.00
2018-05-05T19:33:12.252Z,47.30
2018-05-05T19:35:39.712Z,47.20
2018-05-05T19:38:07.192Z,47.60
2018-05-05T19:40:34.671Z,47.80
2018-05-05T19:43:02.952Z,48.40
2018-05-05T19:45:31.199Z,48.70
2018-05-05T19:48:00.184Z,49.00
2018-05-05T19:50:27.653Z,49.00
2018-05-05T19:52:55.143Z,49.20
2018-05-05T19:55:22.648Z,49.50
2018-05-05T19:57:50.134Z,49.70
2018-05-05T20:00:17.736Z,50.00
2018-05-05T20:02:45.211Z,50.30
2018-05-05T20:05:12.690Z,50.40
2018-05-05T20:07:40.179Z,50.60
2018-05-05T20:10:07.692Z,50.80
2018-05-05T20:12:35.256Z,51.20
2018-05-05T20:15:02.796Z,51.20
2018-05-05T20:17:30.272Z,51.30
2018-05-05T20:19:57.743Z,51.80
2018-05-05T20:22:25.250Z,51.80
2018-05-05T20:24:52.731Z,52.20
2018-05-05T20:27:20.210Z,52.80
2018-05-05T20:29:47.672Z,53.10
2018-05-05T20:32:15.152Z,53.90
2018-05-05T20:34:42.620Z,54.30
2018-05-05T20:37:10.875Z,55.70
2018-05-05T20:39:38.349Z,55.70
2018-05-05T20:42:05.808Z,56.20
2018-05-05T20:44:33.280Z,56.70
2018-05-05T20:47:01.589Z,58.40
2018-05-05T20:49:29.075Z,58.40
2018-05-05T20:51:58.055Z,58.80
2018-05-05T20:54:25.535Z,58.80
2018-05-05T20:56:53.017Z,59.20
2018-05-05T20:59:21.351Z,59.50
2018-05-05T21:01:48.764Z,59.50
2018-05-05T21:04:17.023Z,60.50
2018-05-05T21:06:45.303Z,61.20
2018-05-05T21:09:12.767Z,61.10
2018-05-05T21:11:41.075Z,62.80
2018-05-05T21:14:08.544Z,62.80
2018-05-05T21:16:36.024Z,64.50
2018-05-05T21:19:03.500Z,65.60
2018-05-05T21:21:31.799Z,67.00
2018-05-05T21:23:59.236Z,67.00
2018-05-05T21:26:26.715Z,67.40
2018-05-05T21:28:54.955Z,68.20
2018-05-05T21:31:22.478Z,68.20
2018-05-05T21:33:49.984Z,68.90
2018-05-05T21:36:17.597Z,67.80
2018-05-05T21:38:45.111Z,67.10
2018-05-05T21:41:13.399Z,66.10
2018-05-05T21:43:42.735Z,65.50
2018-05-05T21:46:10.263Z,65.50
2018-05-05T21:48:38.533Z,64.00
2018-05-05T21:51:07.859Z,63.50
2018-05-05T21:53:35.332Z,63.50
2018-05-05T21:56:02.919Z,63.70
2018-05-05T21:58:31.120Z,64.50
2018-05-05T22:01:00.123Z,64.30
2018-05-05T22:03:28.371Z,64.40
2018-05-05T22:05:55.863Z,64.30
2018-05-05T22:08:24.135Z,64.10
2018-05-05T22:10:52.368Z,64.10
2018-05-05T22:13:19.845Z,64.00
2018-05-05T22:15:47.304Z,62.20
2018-05-05T22:18:14.787Z,61.30
2018-05-05T22:20:43.015Z,59.90
2018-05-05T22:23:10.475Z,59.80
2018-05-05T22:25:38.050Z,59.90
2018-05-05T22:28:05.507Z,60.10
2018-05-05T22:30:32.991Z,60.10
2018-05-05T22:33:00.456Z,59.90
2018-05-05T22:35:28.707Z,59.60
2018-05-05T22:37:56.232Z,59.60
2018-05-05T22:40:23.751Z,59.50
2018-05-05T22:42:51.977Z,59.80
2018-05-05T22:45:19.431Z,59.80
2018-05-05T22:47:46.911Z,58.80
2018-05-05T22:50:14.376Z,59.20
2018-05-05T22:52:41.867Z,57.50
2018-05-05T22:55:10.091Z,57.50
2018-05-05T22:57:37.593Z,57.40
2018-05-05T23:00:05.824Z,57.90
2018-05-05T23:02:33.298Z,57.90
2018-05-05T23:05:00.775Z,57.30
2018-05-05T23:07:29.754Z,56.90
2018-05-05T23:09:57.227Z,56.90
2018-05-05T23:12:25.455Z,56.80
2018-05-05T23:14:52.933Z,56.80
2018-05-05T23:17:20.399Z,56.00
2018-05-05T23:19:47.888Z,55.60
2018-05-05T23:22:16.154Z,55.30
2018-05-05T23:24:43.597Z,55.30
2018-05-05T23:27:11.082Z,55.80
2018-05-05T23:29:39.305Z,55.20
2018-05-05T23:32:06.784Z,55.10
2018-05-05T23:34:34.342Z,55.40
2018-05-05T23:37:02.510Z,55.70
2018-05-05T23:39:29.983Z,55.70
2018-05-05T23:41:57.483Z,55.80
2018-05-05T23:44:24.960Z,55.70
2018-05-05T23:46:52.424Z,55.80
2018-05-05T23:49:19.908Z,55.90
2018-05-05T23:51:47.372Z,56.10
2018-05-05T23:54:14.856Z,56.40
2018-05-05T23:56:43.084Z,56.80
2018-05-05T23:59:10.559Z,56.80
